createdAt,value
2022-12-26T00:06:00.308Z,6.63
2022-12-26T00:16:08.594Z,6.20
2022-12-26T00:26:15.721Z,5.87
2022-12-26T00:36:20.428Z,6.47
2022-12-26T00:46:25.659Z,6.10
2022-12-26T00:56:28.752Z,5.70
2022-12-26T01:06:33.214Z,6.53
2022-12-26T01:16:36.303Z,5.57
2022-12-26T01:26:40.757Z,4.87
2022-12-26T01:36:43.773Z,5.97
2022-12-26T01:46:48.263Z,5.40
2022-12-26T01:56:51.533Z,5.27
2022-12-26T02:06:56.334Z,5.50
2022-12-26T02:16:59.518Z,4.97
2022-12-26T02:27:36.538Z,4.70
2022-12-26T02:37:50.631Z,6.93
2022-12-26T02:47:58.348Z,4.77
2022-12-26T02:58:24.674Z,4.87
2022-12-26T03:08:50.876Z,6.93
2022-12-26T03:19:00.711Z,8.37
2022-12-26T03:29:19.173Z,5.80
2022-12-26T03:39:47.171Z,4.30
2022-12-26T03:50:12.526Z,4.60
2022-12-26T04:00:34.210Z,4.73
2022-12-26T04:10:58.479Z,4.50
2022-12-26T04:21:34.331Z,4.57
2022-12-26T04:32:03.004Z,4.70
2022-12-26T04:42:26.632Z,4.30
2022-12-26T04:52:51.355Z,4.20
2022-12-26T05:03:18.755Z,3.50
2022-12-26T05:13:22.662Z,4.07
2022-12-26T05:23:46.472Z,3.20
2022-12-26T05:34:07.661Z,3.27
2022-12-26T05:44:12.499Z,3.40
2022-12-26T05:54:15.548Z,3.00
2022-12-26T06:04:20.025Z,3.13
2022-12-26T06:14:23.316Z,2.93
2022-12-26T06:24:27.770Z,3.13
2022-12-26T06:34:30.961Z,3.70
2022-12-26T06:44:35.339Z,3.00
2022-12-26T06:54:38.384Z,3.50
2022-12-26T07:04:42.927Z,3.73
2022-12-26T07:14:45.936Z,4.17
2022-12-26T07:24:50.349Z,3.60
2022-12-26T07:34:53.428Z,2.93
2022-12-26T07:44:57.816Z,3.60
2022-12-26T07:55:00.867Z,3.63
2022-12-26T08:05:05.654Z,3.60
2022-12-26T08:15:10.544Z,3.00
2022-12-26T08:25:18.310Z,3.00
2022-12-26T08:35:24.816Z,3.27
2022-12-26T08:45:29.201Z,3.20
2022-12-26T08:55:32.248Z,3.07
2022-12-26T09:05:36.625Z,3.20
2022-12-26T09:15:39.651Z,3.50
2022-12-26T09:25:44.055Z,3.20
2022-12-26T09:35:48.100Z,3.40
2022-12-26T09:46:07.101Z,3.30
2022-12-26T09:56:36.911Z,3.63
2022-12-26T10:06:42.821Z,3.27
2022-12-26T10:16:54.475Z,3.70
2022-12-26T10:27:03.973Z,3.70
2022-12-26T10:37:15.292Z,3.60
2022-12-26T10:47:26.141Z,3.90
2022-12-26T10:57:31.756Z,4.80
2022-12-26T11:07:38.612Z,4.17
2022-12-26T11:17:46.004Z,5.10
2022-12-26T11:27:52.349Z,4.77
2022-12-26T11:37:58.555Z,5.70
2022-12-26T11:48:03.264Z,7.10
2022-12-26T11:58:19.278Z,7.57
2022-12-26T12:08:35.388Z,5.20
2022-12-26T12:18:49.895Z,3.90
2022-12-26T12:29:21.730Z,4.10
2022-12-26T12:39:36.654Z,4.20
2022-12-26T12:49:53.427Z,3.70
2022-12-26T13:00:12.067Z,3.70
2022-12-26T13:10:22.092Z,3.30
2022-12-26T13:20:31.782Z,3.80
2022-12-26T13:30:36.281Z,3.63
2022-12-26T13:40:46.325Z,3.70
2022-12-26T13:50:56.133Z,4.07
2022-12-26T14:01:08.318Z,3.80
2022-12-26T14:11:28.324Z,3.80
2022-12-26T14:21:40.987Z,3.50
2022-12-26T14:31:56.621Z,3.53
2022-12-26T14:42:39.397Z,4.17
2022-12-26T14:52:44.666Z,4.23
2022-12-26T15:03:08.407Z,4.67
2022-12-26T15:13:33.193Z,4.73
2022-12-26T15:23:56.363Z,4.03
2022-12-26T15:34:16.085Z,3.53
2022-12-26T15:44:26.841Z,4.83
2022-12-26T15:55:04.542Z,5.43
2022-12-26T16:05:37.222Z,2.83
2022-12-26T16:15:49.260Z,2.03
2022-12-26T16:25:54.570Z,1.90
2022-12-26T16:36:01.175Z,3.70
2022-12-26T16:46:07.897Z,2.10
2022-12-26T16:56:26.539Z,1.70
2022-12-26T17:06:32.985Z,1.63
2022-12-26T17:16:37.656Z,1.57
2022-12-26T17:26:42.365Z,3.63
2022-12-26T17:37:18.001Z,1.30
2022-12-26T17:47:20.623Z,1.70
2022-12-26T17:57:28.010Z,1.00
2022-12-26T18:07:31.991Z,0.90
2022-12-26T18:17:36.616Z,0.70
2022-12-26T18:27:39.835Z,0.80
2022-12-26T18:37:47.897Z,0.70
2022-12-26T18:47:50.952Z,0.70
2022-12-26T18:57:55.988Z,0.50
2022-12-26T19:07:59.788Z,0.47
2022-12-26T19:18:04.737Z,0.50
2022-12-26T19:28:07.884Z,0.50
2022-12-26T19:38:13.603Z,0.40
2022-12-26T19:48:16.645Z,0.50
2022-12-26T19:58:21.071Z,1.00
2022-12-26T20:08:24.103Z,0.33
2022-12-26T20:18:29.640Z,0.50
2022-12-26T20:28:32.975Z,0.50
2022-12-26T20:38:37.939Z,0.60
2022-12-26T20:48:41.179Z,0.57
2022-12-26T20:58:45.571Z,0.70
2022-12-26T21:08:50.075Z,0.57
2022-12-26T21:18:54.698Z,0.60
2022-12-26T21:28:59.817Z,0.43
2022-12-26T21:39:07.252Z,0.50
2022-12-26T21:49:10.414Z,0.50
2022-12-26T21:59:32.448Z,0.50
2022-12-26T22:09:35.445Z,0.70
2022-12-26T22:19:39.802Z,0.60
2022-12-26T22:29:42.847Z,0.60
2022-12-26T22:39:47.209Z,0.90
2022-12-26T22:49:50.301Z,0.50
2022-12-26T23:00:08.350Z,0.57
2022-12-26T23:10:18.069Z,0.67
2022-12-26T23:20:42.817Z,0.50
2022-12-26T23:30:45.835Z,0.50
2022-12-26T23:40:50.268Z,0.70
2022-12-26T23:51:02.179Z,0.60
